sensor_id;sensor_type;location;lat;lon;timestamp;pressure;altitude;pressure_sealevel;temperature;humidity
79544;BME280;68994;47.176;7.534;2023-07-22T00:01:34;96062.56;;;16.77;76.49
79544;BME280;68994;47.176;7.534;2023-07-22T00:04:02;96060.56;;;16.69;76.17
79544;BME280;68994;47.176;7.534;2023-07-22T00:06:29;96062.34;;;16.60;76.58
79544;BME280;68994;47.176;7.534;2023-07-22T00:08:55;96060.91;;;16.48;76.98
79544;BME280;68994;47.176;7.534;2023-07-22T00:11:23;96057.50;;;16.43;77.10
79544;BME280;68994;47.176;7.534;2023-07-22T00:13:49;96061.63;;;16.35;76.96
79544;BME280;68994;47.176;7.534;2023-07-22T00:16:18;96061.50;;;16.26;77.26
79544;BME280;68994;47.176;7.534;2023-07-22T00:18:45;96061.06;;;16.19;77.47
79544;BME280;68994;47.176;7.534;2023-07-22T00:21:11;96053.56;;;16.16;77.85
79544;BME280;68994;47.176;7.534;2023-07-22T00:23:38;96060.03;;;16.15;77.71
79544;BME280;68994;47.176;7.534;2023-07-22T00:26:05;96064.44;;;16.11;78.48
79544;BME280;68994;47.176;7.534;2023-07-22T00:28:31;96058.00;;;16.07;79.06
79544;BME280;68994;47.176;7.534;2023-07-22T00:30:58;96058.59;;;16.04;78.54
79544;BME280;68994;47.176;7.534;2023-07-22T00:33:27;96054.66;;;15.96;78.44
79544;BME280;68994;47.176;7.534;2023-07-22T00:35:53;96065.16;;;15.98;78.63
79544;BME280;68994;47.176;7.534;2023-07-22T00:38:20;96063.53;;;15.97;79.02
79544;BME280;68994;47.176;7.534;2023-07-22T00:40:47;96050.06;;;15.97;79.10
79544;BME280;68994;47.176;7.534;2023-07-22T00:43:14;96049.00;;;15.98;79.17
79544;BME280;68994;47.176;7.534;2023-07-22T00:45:41;96048.41;;;16.01;79.45
79544;BME280;68994;47.176;7.534;2023-07-22T00:48:08;96051.13;;;16.01;79.38
79544;BME280;68994;47.176;7.534;2023-07-22T00:50:38;96054.38;;;15.98;79.90
79544;BME280;68994;47.176;7.534;2023-07-22T00:53:05;96050.56;;;15.99;80.42
79544;BME280;68994;47.176;7.534;2023-07-22T00:55:33;96040.63;;;15.99;80.26
79544;BME280;68994;47.176;7.534;2023-07-22T00:58:01;96044.91;;;16.00;80.62
79544;BME280;68994;47.176;7.534;2023-07-22T01:00:27;96047.59;;;16.00;80.59
79544;BME280;68994;47.176;7.534;2023-07-22T01:02:54;96049.22;;;16.01;80.71
79544;BME280;68994;47.176;7.534;2023-07-22T01:05:21;96047.59;;;16.00;81.19
79544;BME280;68994;47.176;7.534;2023-07-22T01:07:49;96050.81;;;16.02;80.81
79544;BME280;68994;47.176;7.534;2023-07-22T01:10:16;96047.53;;;16.05;80.58
79544;BME280;68994;47.176;7.534;2023-07-22T01:12:43;96052.41;;;16.03;81.10
79544;BME280;68994;47.176;7.534;2023-07-22T01:15:10;96045.72;;;16.01;80.97
79544;BME280;68994;47.176;7.534;2023-07-22T01:17:37;96046.81;;;16.00;81.00
79544;BME280;68994;47.176;7.534;2023-07-22T01:20:06;96044.13;;;16.00;81.73
79544;BME280;68994;47.176;7.534;2023-07-22T01:22:36;96049.78;;;15.98;80.87
79544;BME280;68994;47.176;7.534;2023-07-22T01:25:05;96062.75;;;15.96;81.06
79544;BME280;68994;47.176;7.534;2023-07-22T01:27:32;96064.34;;;15.97;80.99
79544;BME280;68994;47.176;7.534;2023-07-22T01:29:59;96055.75;;;15.95;80.98
79544;BME280;68994;47.176;7.534;2023-07-22T01:32:27;96055.53;;;15.91;81.13
79544;BME280;68994;47.176;7.534;2023-07-22T01:34:54;96044.41;;;15.79;81.26
79544;BME280;68994;47.176;7.534;2023-07-22T01:37:21;96043.91;;;15.77;82.05
79544;BME280;68994;47.176;7.534;2023-07-22T01:39:47;96040.44;;;15.71;81.53
79544;BME280;68994;47.176;7.534;2023-07-22T01:42:17;96035.69;;;15.63;81.67
79544;BME280;68994;47.176;7.534;2023-07-22T01:44:43;96038.50;;;15.53;81.27
79544;BME280;68994;47.176;7.534;2023-07-22T01:47:10;96042.66;;;15.45;82.12
79544;BME280;68994;47.176;7.534;2023-07-22T01:49:37;96045.09;;;15.42;81.88
79544;BME280;68994;47.176;7.534;2023-07-22T01:52:04;96047.06;;;15.36;81.83
79544;BME280;68994;47.176;7.534;2023-07-22T01:54:31;96046.25;;;15.35;82.52
79544;BME280;68994;47.176;7.534;2023-07-22T01:56:58;96040.31;;;15.38;82.71
79544;BME280;68994;47.176;7.534;2023-07-22T01:59:26;96038.94;;;15.41;82.53
79544;BME280;68994;47.176;7.534;2023-07-22T02:01:52;96038.63;;;15.43;82.34
79544;BME280;68994;47.176;7.534;2023-07-22T02:04:19;96036.47;;;15.45;81.98
79544;BME280;68994;47.176;7.534;2023-07-22T02:06:46;96034.81;;;15.49;81.40
79544;BME280;68994;47.176;7.534;2023-07-22T02:09:12;96024.34;;;15.47;81.34
79544;BME280;68994;47.176;7.534;2023-07-22T02:11:39;96023.34;;;15.38;82.00
79544;BME280;68994;47.176;7.534;2023-07-22T02:14:06;96034.28;;;15.47;82.13
79544;BME280;68994;47.176;7.534;2023-07-22T02:16:35;96027.25;;;15.51;82.65
79544;BME280;68994;47.176;7.534;2023-07-22T02:19:02;96025.91;;;15.48;81.52
79544;BME280;68994;47.176;7.534;2023-07-22T02:21:29;96021.59;;;15.52;82.01
79544;BME280;68994;47.176;7.534;2023-07-22T02:23:56;96029.38;;;15.54;82.08
79544;BME280;68994;47.176;7.534;2023-07-22T02:26:22;96037.44;;;15.54;82.23
79544;BME280;68994;47.176;7.534;2023-07-22T02:28:49;96032.06;;;15.54;82.21
79544;BME280;68994;47.176;7.534;2023-07-22T02:31:15;96033.34;;;15.56;82.58
79544;BME280;68994;47.176;7.534;2023-07-22T02:33:43;96022.81;;;15.60;82.81
79544;BME280;68994;47.176;7.534;2023-07-22T02:36:10;96021.94;;;15.65;81.93
79544;BME280;68994;47.176;7.534;2023-07-22T02:38:36;96026.25;;;15.66;82.21
79544;BME280;68994;47.176;7.534;2023-07-22T02:41:03;96014.25;;;15.58;82.64
79544;BME280;68994;47.176;7.534;2023-07-22T02:43:31;96034.03;;;15.67;82.78
79544;BME280;68994;47.176;7.534;2023-07-22T02:46:00;96032.94;;;15.68;82.85
79544;BME280;68994;47.176;7.534;2023-07-22T02:48:27;96029.94;;;15.70;82.84
79544;BME280;68994;47.176;7.534;2023-07-22T02:50:55;96035.06;;;15.71;82.95
79544;BME280;68994;47.176;7.534;2023-07-22T02:53:22;96035.00;;;15.76;82.99
79544;BME280;68994;47.176;7.534;2023-07-22T02:55:49;96030.50;;;15.72;82.80
79544;BME280;68994;47.176;7.534;2023-07-22T02:58:15;96028.09;;;15.70;83.06
79544;BME280;68994;47.176;7.534;2023-07-22T03:00:42;96033.22;;;15.67;83.65
79544;BME280;68994;47.176;7.534;2023-07-22T03:03:09;96037.22;;;15.69;83.22
79544;BME280;68994;47.176;7.534;2023-07-22T03:05:36;96031.91;;;15.64;83.21
79544;BME280;68994;47.176;7.534;2023-07-22T03:08:04;96033.56;;;15.60;83.29
79544;BME280;68994;47.176;7.534;2023-07-22T03:10:32;96028.88;;;15.52;83.63
79544;BME280;68994;47.176;7.534;2023-07-22T03:12:59;96031.78;;;15.55;83.29
79544;BME280;68994;47.176;7.534;2023-07-22T03:15:28;96030.16;;;15.54;83.75
79544;BME280;68994;47.176;7.534;2023-07-22T03:17:55;96026.69;;;15.54;83.33
79544;BME280;68994;47.176;7.534;2023-07-22T03:20:24;96033.94;;;15.53;83.23
79544;BME280;68994;47.176;7.534;2023-07-22T03:22:51;96031.56;;;15.52;83.08
79544;BME280;68994;47.176;7.534;2023-07-22T03:25:19;96034.28;;;15.47;82.92
79544;BME280;68994;47.176;7.534;2023-07-22T03:27:46;96013.78;;;15.32;82.75
79544;BME280;68994;47.176;7.534;2023-07-22T03:30:14;96035.34;;;15.27;82.58
79544;BME280;68994;47.176;7.534;2023-07-22T03:32:41;96035.69;;;15.20;82.83
79544;BME280;68994;47.176;7.534;2023-07-22T03:35:08;96045.66;;;15.14;83.00
79544;BME280;68994;47.176;7.534;2023-07-22T03:37:35;96041.16;;;15.10;83.01
79544;BME280;68994;47.176;7.534;2023-07-22T03:40:03;96041.25;;;14.99;82.32
79544;BME280;68994;47.176;7.534;2023-07-22T03:42:34;96039.78;;;14.88;82.20
79544;BME280;68994;47.176;7.534;2023-07-22T03:45:01;96037.38;;;14.87;82.09
79544;BME280;68994;47.176;7.534;2023-07-22T03:47:27;96039.56;;;14.79;81.87
79544;BME280;68994;47.176;7.534;2023-07-22T03:49:54;96043.16;;;14.70;82.44
79544;BME280;68994;47.176;7.534;2023-07-22T03:52:21;96042.69;;;14.62;82.33
79544;BME280;68994;47.176;7.534;2023-07-22T03:54:48;96053.72;;;14.56;82.25
79544;BME280;68994;47.176;7.534;2023-07-22T03:57:15;96046.81;;;14.50;81.88
79544;BME280;68994;47.176;7.534;2023-07-22T03:59:42;96032.16;;;14.32;82.56
79544;BME280;68994;47.176;7.534;2023-07-22T04:02:09;96050.38;;;14.40;82.58
79544;BME280;68994;47.176;7.534;2023-07-22T04:04:36;96047.13;;;14.38;82.69
79544;BME280;68994;47.176;7.534;2023-07-22T04:07:02;96052.28;;;14.34;82.74
79544;BME280;68994;47.176;7.534;2023-07-22T04:09:33;96060.09;;;14.31;82.52
79544;BME280;68994;47.176;7.534;2023-07-22T04:11:59;96058.50;;;14.29;82.41
79544;BME280;68994;47.176;7.534;2023-07-22T04:14:26;96068.69;;;14.27;82.69
79544;BME280;68994;47.176;7.534;2023-07-22T04:16:54;96062.00;;;14.25;81.38
79544;BME280;68994;47.176;7.534;2023-07-22T04:19:20;96073.78;;;14.29;82.25
79544;BME280;68994;47.176;7.534;2023-07-22T04:21:47;96068.66;;;14.33;82.75
79544;BME280;68994;47.176;7.534;2023-07-22T04:24:14;96076.44;;;14.34;82.84
79544;BME280;68994;47.176;7.534;2023-07-22T04:26:42;96080.50;;;14.32;82.73
79544;BME280;68994;47.176;7.534;2023-07-22T04:29:10;96083.69;;;14.34;82.95
79544;BME280;68994;47.176;7.534;2023-07-22T04:31:37;96085.25;;;14.40;82.97
79544;BME280;68994;47.176;7.534;2023-07-22T04:34:05;96087.09;;;14.44;83.16
79544;BME280;68994;47.176;7.534;2023-07-22T04:36:33;96085.19;;;14.50;83.68
79544;BME280;68994;47.176;7.534;2023-07-22T04:38:59;96079.78;;;14.55;83.49
79544;BME280;68994;47.176;7.534;2023-07-22T04:41:26;96076.28;;;14.60;83.30
79544;BME280;68994;47.176;7.534;2023-07-22T04:43:52;96089.91;;;14.69;83.41
79544;BME280;68994;47.176;7.534;2023-07-22T04:46:19;96085.22;;;14.79;83.45
79544;BME280;68994;47.176;7.534;2023-07-22T04:48:46;96093.41;;;14.98;82.04
79544;BME280;68994;47.176;7.534;2023-07-22T04:51:14;96093.22;;;15.19;80.35
79544;BME280;68994;47.176;7.534;2023-07-22T04:53:40;96088.78;;;15.28;79.79
79544;BME280;68994;47.176;7.534;2023-07-22T04:56:07;96073.53;;;15.24;79.50
79544;BME280;68994;47.176;7.534;2023-07-22T04:58:33;96094.03;;;15.44;79.16
79544;BME280;68994;47.176;7.534;2023-07-22T05:01:00;96096.09;;;15.52;78.76
79544;BME280;68994;47.176;7.534;2023-07-22T05:03:27;96092.75;;;15.60;79.05
79544;BME280;68994;47.176;7.534;2023-07-22T05:05:53;96092.13;;;15.68;80.64
79544;BME280;68994;47.176;7.534;2023-07-22T05:08:21;96097.72;;;15.77;79.92
79544;BME280;68994;47.176;7.534;2023-07-22T05:10:48;96097.88;;;15.86;79.63
79544;BME280;68994;47.176;7.534;2023-07-22T05:13:14;96095.09;;;15.91;78.86
79544;BME280;68994;47.176;7.534;2023-07-22T05:15:41;96103.97;;;15.91;79.55
79544;BME280;68994;47.176;7.534;2023-07-22T05:18:08;96099.97;;;15.89;79.42
79544;BME280;68994;47.176;7.534;2023-07-22T05:20:35;96103.97;;;15.91;79.61
79544;BME280;68994;47.176;7.534;2023-07-22T05:23:01;96097.78;;;15.91;79.32
79544;BME280;68994;47.176;7.534;2023-07-22T05:25:29;96094.88;;;15.87;79.33
79544;BME280;68994;47.176;7.534;2023-07-22T05:27:56;96100.84;;;15.84;79.94
79544;BME280;68994;47.176;7.534;2023-07-22T05:30:23;96101.63;;;15.85;80.41
79544;BME280;68994;47.176;7.534;2023-07-22T05:32:51;96094.41;;;15.80;80.96
79544;BME280;68994;47.176;7.534;2023-07-22T05:35:18;96107.78;;;15.90;80.33
79544;BME280;68994;47.176;7.534;2023-07-22T05:37:45;96106.81;;;16.00;80.48
79544;BME280;68994;47.176;7.534;2023-07-22T05:40:11;96116.34;;;16.11;80.67
79544;BME280;68994;47.176;7.534;2023-07-22T05:42:39;96096.38;;;16.18;80.17
79544;BME280;68994;47.176;7.534;2023-07-22T05:45:07;96111.28;;;16.29;80.52
79544;BME280;68994;47.176;7.534;2023-07-22T05:47:34;96108.53;;;16.34;80.76
79544;BME280;68994;47.176;7.534;2023-07-22T05:50:00;96114.63;;;16.40;80.79
79544;BME280;68994;47.176;7.534;2023-07-22T05:52:29;96113.25;;;16.42;80.90
79544;BME280;68994;47.176;7.534;2023-07-22T05:54:55;96113.25;;;16.42;80.79
79544;BME280;68994;47.176;7.534;2023-07-22T05:57:22;96119.94;;;16.45;79.88
79544;BME280;68994;47.176;7.534;2023-07-22T05:59:50;96118.50;;;16.53;79.75
79544;BME280;68994;47.176;7.534;2023-07-22T06:02:17;96112.50;;;16.56;79.76
79544;BME280;68994;47.176;7.534;2023-07-22T06:04:44;96120.53;;;16.61;79.70
79544;BME280;68994;47.176;7.534;2023-07-22T06:07:10;96110.75;;;16.65;79.79
79544;BME280;68994;47.176;7.534;2023-07-22T06:09:37;96114.16;;;16.70;80.10
79544;BME280;68994;47.176;7.534;2023-07-22T06:12:04;96113.56;;;16.74;79.98
79544;BME280;68994;47.176;7.534;2023-07-22T06:14:31;96115.38;;;16.78;79.56
79544;BME280;68994;47.176;7.534;2023-07-22T06:16:59;96117.00;;;16.79;79.82
79544;BME280;68994;47.176;7.534;2023-07-22T06:19:25;96116.09;;;16.84;79.96
79544;BME280;68994;47.176;7.534;2023-07-22T06:21:52;96121.75;;;16.87;79.64
79544;BME280;68994;47.176;7.534;2023-07-22T06:24:19;96134.63;;;16.91;79.33
79544;BME280;68994;47.176;7.534;2023-07-22T06:26:46;96128.84;;;16.97;79.94
79544;BME280;68994;47.176;7.534;2023-07-22T06:29:12;96123.06;;;17.04;79.60
79544;BME280;68994;47.176;7.534;2023-07-22T06:31:40;96120.19;;;17.14;79.46
79544;BME280;68994;47.176;7.534;2023-07-22T06:34:08;96132.72;;;17.24;79.69
79544;BME280;68994;47.176;7.534;2023-07-22T06:36:34;96133.34;;;17.35;78.10
79544;BME280;68994;47.176;7.534;2023-07-22T06:39:01;96129.34;;;17.46;77.50
79544;BME280;68994;47.176;7.534;2023-07-22T06:41:27;96137.84;;;17.53;76.89
79544;BME280;68994;47.176;7.534;2023-07-22T06:43:54;96136.34;;;17.47;77.61
79544;BME280;68994;47.176;7.534;2023-07-22T06:46:21;96136.34;;;17.47;77.39
79544;BME280;68994;47.176;7.534;2023-07-22T06:48:48;96138.94;;;17.52;77.38
79544;BME280;68994;47.176;7.534;2023-07-22T06:51:16;96138.94;;;17.52;77.89
79544;BME280;68994;47.176;7.534;2023-07-22T06:53:42;96142.13;;;17.54;77.73
79544;BME280;68994;47.176;7.534;2023-07-22T06:56:09;96142.38;;;17.58;78.40
79544;BME280;68994;47.176;7.534;2023-07-22T06:58:35;96137.38;;;17.65;78.39
79544;BME280;68994;47.176;7.534;2023-07-22T07:01:02;96139.38;;;17.73;77.40
79544;BME280;68994;47.176;7.534;2023-07-22T07:03:29;96137.16;;;17.75;77.58
79544;BME280;68994;47.176;7.534;2023-07-22T07:05:56;96136.16;;;17.85;76.86
79544;BME280;68994;47.176;7.534;2023-07-22T07:08:24;96128.97;;;17.94;75.58
79544;BME280;68994;47.176;7.534;2023-07-22T07:10:51;96136.19;;;17.99;75.89
79544;BME280;68994;47.176;7.534;2023-07-22T07:13:18;96128.47;;;17.92;76.96
79544;BME280;68994;47.176;7.534;2023-07-22T07:15:46;96135.16;;;18.09;75.85
79544;BME280;68994;47.176;7.534;2023-07-22T07:18:14;96135.56;;;18.16;76.42
79544;BME280;68994;47.176;7.534;2023-07-22T07:20:41;96134.34;;;18.22;75.79
79544;BME280;68994;47.176;7.534;2023-07-22T07:23:08;96138.03;;;18.26;74.62
79544;BME280;68994;47.176;7.534;2023-07-22T07:25:36;96135.75;;;18.33;74.38
79544;BME280;68994;47.176;7.534;2023-07-22T07:28:03;96134.91;;;18.47;72.96
79544;BME280;68994;47.176;7.534;2023-07-22T07:30:30;96135.28;;;18.54;69.47
79544;BME280;68994;47.176;7.534;2023-07-22T07:32:57;96146.09;;;18.54;70.90
79544;BME280;68994;47.176;7.534;2023-07-22T07:35:24;96138.16;;;18.58;70.91
79544;BME280;68994;47.176;7.534;2023-07-22T07:37:51;96136.94;;;18.64;69.96
79544;BME280;68994;47.176;7.534;2023-07-22T07:40:17;96142.28;;;18.78;68.50
79544;BME280;68994;47.176;7.534;2023-07-22T07:42:45;96146.88;;;18.91;67.86
79544;BME280;68994;47.176;7.534;2023-07-22T07:45:12;96138.88;;;19.08;65.52
79544;BME280;68994;47.176;7.534;2023-07-22T07:47:40;96141.31;;;19.19;65.72
79544;BME280;68994;47.176;7.534;2023-07-22T07:50:08;96140.22;;;19.20;65.88
79544;BME280;68994;47.176;7.534;2023-07-22T07:52:34;96142.91;;;19.20;65.37
79544;BME280;68994;47.176;7.534;2023-07-22T07:55:04;96145.63;;;19.20;64.50
79544;BME280;68994;47.176;7.534;2023-07-22T07:57:31;96141.69;;;19.26;62.79
79544;BME280;68994;47.176;7.534;2023-07-22T07:59:59;96146.53;;;19.38;60.83
79544;BME280;68994;47.176;7.534;2023-07-22T08:02:26;96148.38;;;19.60;57.38
79544;BME280;68994;47.176;7.534;2023-07-22T08:04:52;96153.31;;;19.58;57.10
79544;BME280;68994;47.176;7.534;2023-07-22T08:07:19;96148.59;;;19.72;57.74
79544;BME280;68994;47.176;7.534;2023-07-22T08:09:46;96142.28;;;19.77;56.65
79544;BME280;68994;47.176;7.534;2023-07-22T08:12:15;96147.56;;;19.91;57.96
79544;BME280;68994;47.176;7.534;2023-07-22T08:14:42;96143.78;;;20.00;57.71
79544;BME280;68994;47.176;7.534;2023-07-22T08:17:10;96137.56;;;20.00;58.27
79544;BME280;68994;47.176;7.534;2023-07-22T08:19:36;96136.50;;;20.18;53.45
79544;BME280;68994;47.176;7.534;2023-07-22T08:22:04;96139.06;;;20.24;54.89
79544;BME280;68994;47.176;7.534;2023-07-22T08:24:31;96137.94;;;20.25;52.38
79544;BME280;68994;47.176;7.534;2023-07-22T08:26:58;96144.31;;;20.20;53.28
79544;BME280;68994;47.176;7.534;2023-07-22T08:29:24;96143.22;;;20.30;50.67
79544;BME280;68994;47.176;7.534;2023-07-22T08:31:51;96133.78;;;20.18;51.65
79544;BME280;68994;47.176;7.534;2023-07-22T08:34:19;96137.44;;;20.23;51.19
79544;BME280;68994;47.176;7.534;2023-07-22T08:36:46;96135.88;;;20.22;50.94
79544;BME280;68994;47.176;7.534;2023-07-22T08:39:12;96124.88;;;20.27;48.17
79544;BME280;68994;47.176;7.534;2023-07-22T08:41:40;96137.50;;;20.40;48.06
79544;BME280;68994;47.176;7.534;2023-07-22T08:44:13;96127.59;;;20.44;49.49
79544;BME280;68994;47.176;7.534;2023-07-22T08:46:40;96136.09;;;20.69;46.35
79544;BME280;68994;47.176;7.534;2023-07-22T08:49:09;96134.66;;;20.80;47.77
79544;BME280;68994;47.176;7.534;2023-07-22T08:51:39;96138.63;;;20.83;46.74
79544;BME280;68994;47.176;7.534;2023-07-22T08:54:06;96130.19;;;20.84;45.95
79544;BME280;68994;47.176;7.534;2023-07-22T08:56:34;96146.28;;;21.07;43.67
79544;BME280;68994;47.176;7.534;2023-07-22T08:59:02;96142.94;;;21.10;43.49
79544;BME280;68994;47.176;7.534;2023-07-22T09:01:31;96145.47;;;21.15;42.52
79544;BME280;68994;47.176;7.534;2023-07-22T09:03:58;96145.00;;;21.22;43.53
79544;BME280;68994;47.176;7.534;2023-07-22T09:06:25;96135.41;;;21.16;44.17
79544;BME280;68994;47.176;7.534;2023-07-22T09:08:53;96134.63;;;21.15;44.42
79544;BME280;68994;47.176;7.534;2023-07-22T09:11:20;96137.31;;;21.24;44.16
79544;BME280;68994;47.176;7.534;2023-07-22T09:13:47;96130.09;;;21.28;42.87
79544;BME280;68994;47.176;7.534;2023-07-22T09:16:15;96124.69;;;21.37;44.11
79544;BME280;68994;47.176;7.534;2023-07-22T09:18:42;96127.34;;;21.45;43.77
79544;BME280;68994;47.176;7.534;2023-07-22T09:21:09;96124.63;;;21.54;41.34
79544;BME280;68994;47.176;7.534;2023-07-22T09:23:37;96126.88;;;21.52;41.40
79544;BME280;68994;47.176;7.534;2023-07-22T09:26:16;96130.50;;;21.65;43.17
79544;BME280;68994;47.176;7.534;2023-07-22T09:28:51;96122.16;;;21.70;45.16
79544;BME280;68994;47.176;7.534;2023-07-22T09:31:18;96131.19;;;21.92;42.85
79544;BME280;68994;47.176;7.534;2023-07-22T09:33:44;96124.38;;;22.07;40.12
79544;BME280;68994;47.176;7.534;2023-07-22T09:36:11;96115.59;;;22.39;39.79
79544;BME280;68994;47.176;7.534;2023-07-22T09:38:38;96120.94;;;23.24;38.64
79544;BME280;68994;47.176;7.534;2023-07-22T09:41:05;96109.19;;;24.43;38.32
79544;BME280;68994;47.176;7.534;2023-07-22T09:43:36;96113.53;;;26.40;33.28
79544;BME280;68994;47.176;7.534;2023-07-22T09:46:08;96114.34;;;27.62;28.74
79544;BME280;68994;47.176;7.534;2023-07-22T09:48:41;96102.38;;;29.11;28.40
79544;BME280;68994;47.176;7.534;2023-07-22T09:51:12;96103.25;;;30.01;27.01
79544;BME280;68994;47.176;7.534;2023-07-22T09:53:44;96094.41;;;31.13;25.93
79544;BME280;68994;47.176;7.534;2023-07-22T09:56:11;96098.47;;;31.77;23.67
79544;BME280;68994;47.176;7.534;2023-07-22T09:58:40;96103.97;;;31.98;25.59
79544;BME280;68994;47.176;7.534;2023-07-22T10:01:07;96094.38;;;32.79;26.19
79544;BME280;68994;47.176;7.534;2023-07-22T10:03:37;96100.44;;;33.33;22.69
79544;BME280;68994;47.176;7.534;2023-07-22T10:06:05;96093.56;;;32.89;22.58
79544;BME280;68994;47.176;7.534;2023-07-22T10:08:34;96096.69;;;32.95;20.81
79544;BME280;68994;47.176;7.534;2023-07-22T10:11:03;96095.28;;;31.42;23.71
79544;BME280;68994;47.176;7.534;2023-07-22T10:13:32;96099.78;;;30.77;23.52
79544;BME280;68994;47.176;7.534;2023-07-22T10:16:00;96090.78;;;30.18;24.95
79544;BME280;68994;47.176;7.534;2023-07-22T10:18:28;96090.19;;;30.46;26.89
79544;BME280;68994;47.176;7.534;2023-07-22T10:20:57;96091.81;;;29.50;30.24
79544;BME280;68994;47.176;7.534;2023-07-22T10:23:25;96088.53;;;31.18;28.57
79544;BME280;68994;47.176;7.534;2023-07-22T10:25:52;96089.81;;;31.71;25.79
79544;BME280;68994;47.176;7.534;2023-07-22T10:28:19;96079.78;;;32.82;24.23
79544;BME280;68994;47.176;7.534;2023-07-22T10:30:46;96075.94;;;33.91;26.04
79544;BME280;68994;47.176;7.534;2023-07-22T10:33:16;96072.66;;;34.45;25.23
79544;BME280;68994;47.176;7.534;2023-07-22T10:35:43;96064.34;;;33.55;22.63
79544;BME280;68994;47.176;7.534;2023-07-22T10:38:12;96067.53;;;32.79;22.23
79544;BME280;68994;47.176;7.534;2023-07-22T10:40:45;96064.50;;;33.89;21.95
79544;BME280;68994;47.176;7.534;2023-07-22T10:43:15;96069.03;;;34.10;21.99
79544;BME280;68994;47.176;7.534;2023-07-22T10:45:49;96061.06;;;34.54;19.78
79544;BME280;68994;47.176;7.534;2023-07-22T10:48:18;96065.69;;;33.36;20.43
79544;BME280;68994;47.176;7.534;2023-07-22T10:50:47;96070.16;;;33.15;20.71
79544;BME280;68994;47.176;7.534;2023-07-22T10:53:20;96069.50;;;33.53;19.68
79544;BME280;68994;47.176;7.534;2023-07-22T10:56:07;96059.22;;;34.02;23.29
79544;BME280;68994;47.176;7.534;2023-07-22T10:59:00;96055.50;;;34.92;19.31
79544;BME280;68994;47.176;7.534;2023-07-22T11:01:36;96057.41;;;33.85;21.31
79544;BME280;68994;47.176;7.534;2023-07-22T11:04:20;96061.38;;;32.28;24.84
79544;BME280;68994;47.176;7.534;2023-07-22T11:06:54;96053.56;;;33.15;19.67
79544;BME280;68994;47.176;7.534;2023-07-22T11:09:35;96042.38;;;33.33;22.82
79544;BME280;68994;47.176;7.534;2023-07-22T11:12:04;96046.47;;;33.74;21.41
79544;BME280;68994;47.176;7.534;2023-07-22T11:14:32;96045.63;;;32.00;22.79
79544;BME280;68994;47.176;7.534;2023-07-22T11:17:00;96045.44;;;30.67;24.82
79544;BME280;68994;47.176;7.534;2023-07-22T11:19:30;96045.25;;;31.84;23.59
79544;BME280;68994;47.176;7.534;2023-07-22T11:21:57;96038.53;;;33.13;25.90
79544;BME280;68994;47.176;7.534;2023-07-22T11:24:24;96044.84;;;31.96;23.87
79544;BME280;68994;47.176;7.534;2023-07-22T11:26:51;96037.00;;;31.76;23.35
79544;BME280;68994;47.176;7.534;2023-07-22T11:29:18;96038.38;;;32.60;24.44
79544;BME280;68994;47.176;7.534;2023-07-22T11:31:46;96033.88;;;33.02;22.54
79544;BME280;68994;47.176;7.534;2023-07-22T11:34:14;96032.34;;;33.54;21.73
79544;BME280;68994;47.176;7.534;2023-07-22T11:36:43;96032.63;;;33.74;21.08
79544;BME280;68994;47.176;7.534;2023-07-22T11:39:11;96021.78;;;33.90;20.42
79544;BME280;68994;47.176;7.534;2023-07-22T11:41:39;96017.72;;;32.94;20.43
79544;BME280;68994;47.176;7.534;2023-07-22T11:44:07;96010.13;;;33.68;19.67
79544;BME280;68994;47.176;7.534;2023-07-22T11:46:35;96009.94;;;34.28;22.72
79544;BME280;68994;47.176;7.534;2023-07-22T11:49:02;96016.63;;;34.65;23.01
79544;BME280;68994;47.176;7.534;2023-07-22T11:51:29;96009.06;;;35.27;18.90
79544;BME280;68994;47.176;7.534;2023-07-22T11:53:57;96009.75;;;34.42;19.66
79544;BME280;68994;47.176;7.534;2023-07-22T11:56:26;96010.66;;;32.89;22.84
79544;BME280;68994;47.176;7.534;2023-07-22T11:58:54;96014.13;;;31.40;21.61
79544;BME280;68994;47.176;7.534;2023-07-22T12:01:22;96007.66;;;30.64;23.64
79544;BME280;68994;47.176;7.534;2023-07-22T12:03:55;96010.53;;;31.07;26.31
79544;BME280;68994;47.176;7.534;2023-07-22T12:06:24;95999.81;;;32.39;26.26
79544;BME280;68994;47.176;7.534;2023-07-22T12:08:52;96004.38;;;33.44;21.47
79544;BME280;68994;47.176;7.534;2023-07-22T12:11:22;95996.06;;;33.44;20.28
79544;BME280;68994;47.176;7.534;2023-07-22T12:13:50;95995.16;;;33.58;21.76
79544;BME280;68994;47.176;7.534;2023-07-22T12:16:30;95998.97;;;33.26;19.66
79544;BME280;68994;47.176;7.534;2023-07-22T12:18:57;95992.84;;;31.22;22.28
79544;BME280;68994;47.176;7.534;2023-07-22T12:21:23;95987.84;;;32.70;23.76
79544;BME280;68994;47.176;7.534;2023-07-22T12:23:50;95991.91;;;33.15;23.14
79544;BME280;68994;47.176;7.534;2023-07-22T12:26:16;95996.78;;;33.56;19.78
79544;BME280;68994;47.176;7.534;2023-07-22T12:28:44;95985.34;;;32.94;19.89
79544;BME280;68994;47.176;7.534;2023-07-22T12:31:11;95978.94;;;33.15;19.44
79544;BME280;68994;47.176;7.534;2023-07-22T12:33:38;95998.16;;;32.66;20.55
79544;BME280;68994;47.176;7.534;2023-07-22T12:36:05;95986.50;;;33.53;21.50
79544;BME280;68994;47.176;7.534;2023-07-22T12:38:31;95989.22;;;33.07;19.97
79544;BME280;68994;47.176;7.534;2023-07-22T12:40:58;95992.22;;;33.31;23.73
79544;BME280;68994;47.176;7.534;2023-07-22T12:43:25;95992.03;;;33.53;19.33
79544;BME280;68994;47.176;7.534;2023-07-22T12:45:53;95977.72;;;33.13;22.07
79544;BME280;68994;47.176;7.534;2023-07-22T12:48:20;95982.81;;;33.74;20.14
79544;BME280;68994;47.176;7.534;2023-07-22T12:50:46;95975.09;;;32.91;18.70
79544;BME280;68994;47.176;7.534;2023-07-22T12:53:13;95968.94;;;32.65;19.38
79544;BME280;68994;47.176;7.534;2023-07-22T12:55:40;95966.38;;;32.96;21.18
79544;BME280;68994;47.176;7.534;2023-07-22T12:58:07;95967.19;;;32.97;21.07
79544;BME280;68994;47.176;7.534;2023-07-22T13:00:33;95966.56;;;32.60;20.81
79544;BME280;68994;47.176;7.534;2023-07-22T13:03:01;95966.84;;;31.38;23.92